sensor_id;sensor_type;location;lat;lon;timestamp;pressure;altitude;pressure_sealevel;temperature;humidity
69184;BME280;56291;53.960;27.550;2023-03-13T00:01:38;98478.13;;;-6.09;74.08
69184;BME280;56291;53.960;27.550;2023-03-13T00:04:07;98481.59;;;-6.10;73.33
69184;BME280;56291;53.960;27.550;2023-03-13T00:06:37;98489.97;;;-6.06;73.33
69184;BME280;56291;53.960;27.550;2023-03-13T00:09:31;98493.59;;;-6.12;73.30
69184;BME280;56291;53.960;27.550;2023-03-13T00:12:00;98503.00;;;-6.12;73.67
69184;BME280;56291;53.960;27.550;2023-03-13T00:14:27;98503.84;;;-6.12;73.78
69184;BME280;56291;53.960;27.550;2023-03-13T00:17:04;98504.00;;;-6.16;73.68
69184;BME280;56291;53.960;27.550;2023-03-13T00:19:34;98499.66;;;-6.14;73.01
69184;BME280;56291;53.960;27.550;2023-03-13T00:22:07;98500.66;;;-6.18;73.21
69184;BME280;56291;53.960;27.550;2023-03-13T00:24:44;98507.53;;;-6.21;73.43
69184;BME280;56291;53.960;27.550;2023-03-13T00:27:16;98506.63;;;-6.18;73.06
69184;BME280;56291;53.960;27.550;2023-03-13T00:29:42;98510.38;;;-6.28;73.53
69184;BME280;56291;53.960;27.550;2023-03-13T00:32:21;98514.47;;;-6.24;73.11
69184;BME280;56291;53.960;27.550;2023-03-13T00:34:50;98517.09;;;-6.26;72.78
69184;BME280;56291;53.960;27.550;2023-03-13T00:37:24;98519.72;;;-6.27;72.57
69184;BME280;56291;53.960;27.550;2023-03-13T00:39:50;98518.00;;;-6.27;72.95
69184;BME280;56291;53.960;27.550;2023-03-13T00:42:17;98521.69;;;-6.35;72.89
69184;BME280;56291;53.960;27.550;2023-03-13T00:44:43;98516.72;;;-6.40;73.14
69184;BME280;56291;53.960;27.550;2023-03-13T00:47:14;98522.66;;;-6.40;72.98
69184;BME280;56291;53.960;27.550;2023-03-13T00:49:42;98526.91;;;-6.39;72.95
69184;BME280;56291;53.960;27.550;2023-03-13T00:52:16;98528.88;;;-6.47;72.62
69184;BME280;56291;53.960;27.550;2023-03-13T00:54:53;98534.78;;;-6.45;72.79
69184;BME280;56291;53.960;27.550;2023-03-13T00:57:30;98544.28;;;-6.48;72.90
69184;BME280;56291;53.960;27.550;2023-03-13T01:00:03;98543.44;;;-6.49;72.73
69184;BME280;56291;53.960;27.550;2023-03-13T01:02:42;98544.47;;;-6.55;73.05
69184;BME280;56291;53.960;27.550;2023-03-13T01:05:19;98534.28;;;-6.56;72.28
69184;BME280;56291;53.960;27.550;2023-03-13T01:07:48;98541.22;;;-6.60;72.36
69184;BME280;56291;53.960;27.550;2023-03-13T01:10:18;98542.03;;;-6.58;72.36
69184;BME280;56291;53.960;27.550;2023-03-13T01:12:44;98547.97;;;-6.57;72.65
69184;BME280;56291;53.960;27.550;2023-03-13T01:15:16;98548.28;;;-6.68;72.82
69184;BME280;56291;53.960;27.550;2023-03-13T01:17:45;98545.69;;;-6.66;72.77
69184;BME280;56291;53.960;27.550;2023-03-13T01:20:16;98544.16;;;-6.72;72.42
69184;BME280;56291;53.960;27.550;2023-03-13T01:22:45;98546.91;;;-6.78;72.67
69184;BME280;56291;53.960;27.550;2023-03-13T01:25:11;98545.38;;;-6.84;72.43
69184;BME280;56291;53.960;27.550;2023-03-13T01:27:50;98544.50;;;-6.83;72.66
69184;BME280;56291;53.960;27.550;2023-03-13T01:30:16;98550.44;;;-6.82;72.55
69184;BME280;56291;53.960;27.550;2023-03-13T01:32:45;98547.72;;;-6.78;72.51
69184;BME280;56291;53.960;27.550;2023-03-13T01:35:13;98549.63;;;-6.83;72.56
69184;BME280;56291;53.960;27.550;2023-03-13T01:37:40;98555.56;;;-6.82;72.13
69184;BME280;56291;53.960;27.550;2023-03-13T01:40:06;98554.13;;;-6.91;72.65
69184;BME280;56291;53.960;27.550;2023-03-13T01:42:50;98558.41;;;-6.93;72.21
69184;BME280;56291;53.960;27.550;2023-03-13T01:46:09;98561.06;;;-6.96;72.25
69184;BME280;56291;53.960;27.550;2023-03-13T01:51:10;98562.28;;;-7.08;71.99
69184;BME280;56291;53.960;27.550;2023-03-13T01:53:40;98561.38;;;-7.07;72.52
69184;BME280;56291;53.960;27.550;2023-03-13T01:56:11;98565.88;;;-7.15;72.47
69184;BME280;56291;53.960;27.550;2023-03-13T01:58:39;98571.59;;;-7.07;72.05
69184;BME280;56291;53.960;27.550;2023-03-13T02:01:06;98571.03;;;-7.17;72.39
69184;BME280;56291;53.960;27.550;2023-03-13T02:03:35;98574.44;;;-7.16;72.18
69184;BME280;56291;53.960;27.550;2023-03-13T02:06:03;98578.75;;;-7.18;72.39
69184;BME280;56291;53.960;27.550;2023-03-13T02:08:37;98582.13;;;-7.16;72.65
69184;BME280;56291;53.960;27.550;2023-03-13T02:13:41;98576.41;;;-7.26;72.58
69184;BME280;56291;53.960;27.550;2023-03-13T02:16:09;98588.38;;;-7.28;71.76
69184;BME280;56291;53.960;27.550;2023-03-13T02:18:36;98592.63;;;-7.27;71.81
69184;BME280;56291;53.960;27.550;2023-03-13T02:21:32;98599.72;;;-7.37;72.42
69184;BME280;56291;53.960;27.550;2023-03-13T02:24:09;98601.31;;;-7.33;72.39
69184;BME280;56291;53.960;27.550;2023-03-13T02:26:38;98599.63;;;-7.34;72.24
69184;BME280;56291;53.960;27.550;2023-03-13T02:29:05;98598.75;;;-7.33;71.78
69184;BME280;56291;53.960;27.550;2023-03-13T02:31:32;98603.06;;;-7.35;72.13
69184;BME280;56291;53.960;27.550;2023-03-13T02:34:00;98605.78;;;-7.41;71.97
69184;BME280;56291;53.960;27.550;2023-03-13T02:36:28;98607.75;;;-7.51;72.49
69184;BME280;56291;53.960;27.550;2023-03-13T02:38:59;98610.16;;;-7.45;72.23
69184;BME280;56291;53.960;27.550;2023-03-13T02:41:33;98618.56;;;-7.41;72.09
69184;BME280;56291;53.960;27.550;2023-03-13T02:44:00;98614.28;;;-7.41;71.74
69184;BME280;56291;53.960;27.550;2023-03-13T02:46:26;98623.63;;;-7.40;72.08
69184;BME280;56291;53.960;27.550;2023-03-13T02:48:54;98626.47;;;-7.50;71.67
69184;BME280;56291;53.960;27.550;2023-03-13T02:51:43;98619.88;;;-7.59;72.42
69184;BME280;56291;53.960;27.550;2023-03-13T02:54:24;98626.84;;;-7.64;72.63
69184;BME280;56291;53.960;27.550;2023-03-13T02:56:57;98624.13;;;-7.58;72.10
69184;BME280;56291;53.960;27.550;2023-03-13T02:59:25;98624.13;;;-7.58;71.85
69184;BME280;56291;53.960;27.550;2023-03-13T03:01:54;98627.75;;;-7.67;72.17
69184;BME280;56291;53.960;27.550;2023-03-13T03:04:25;98622.78;;;-7.73;73.23
69184;BME280;56291;53.960;27.550;2023-03-13T03:06:52;98624.47;;;-7.72;72.65
69184;BME280;56291;53.960;27.550;2023-03-13T03:09:19;98628.81;;;-7.76;72.77
69184;BME280;56291;53.960;27.550;2023-03-13T03:11:46;98631.34;;;-7.74;72.85
69184;BME280;56291;53.960;27.550;2023-03-13T03:14:17;98622.75;;;-7.71;72.20
69184;BME280;56291;53.960;27.550;2023-03-13T03:16:43;98628.81;;;-7.76;72.59
69184;BME280;56291;53.960;27.550;2023-03-13T03:19:10;98624.50;;;-7.73;72.50
69184;BME280;56291;53.960;27.550;2023-03-13T03:21:36;98622.81;;;-7.75;72.78
69184;BME280;56291;53.960;27.550;2023-03-13T03:24:03;98634.00;;;-7.79;72.82
69184;BME280;56291;53.960;27.550;2023-03-13T03:26:32;98629.00;;;-7.83;72.80
69184;BME280;56291;53.960;27.550;2023-03-13T03:28:58;98632.34;;;-7.81;72.98
69184;BME280;56291;53.960;27.550;2023-03-13T03:31:25;98631.56;;;-7.83;72.80
69184;BME280;56291;53.960;27.550;2023-03-13T03:33:51;98635.69;;;-7.78;72.62
69184;BME280;56291;53.960;27.550;2023-03-13T03:36:20;98635.75;;;-7.81;72.65
69184;BME280;56291;53.960;27.550;2023-03-13T03:38:47;98637.34;;;-7.77;72.04
69184;BME280;56291;53.960;27.550;2023-03-13T03:41:14;98637.56;;;-7.86;72.66
69184;BME280;56291;53.960;27.550;2023-03-13T03:43:41;98639.34;;;-7.88;72.60
69184;BME280;56291;53.960;27.550;2023-03-13T03:46:07;98642.69;;;-7.86;72.64
69184;BME280;56291;53.960;27.550;2023-03-13T03:48:34;98636.72;;;-7.85;72.33
69184;BME280;56291;53.960;27.550;2023-03-13T03:51:01;98632.47;;;-7.86;72.54
69184;BME280;56291;53.960;27.550;2023-03-13T03:53:28;98630.88;;;-7.90;72.22
69184;BME280;56291;53.960;27.550;2023-03-13T03:55:55;98631.78;;;-7.93;72.72
69184;BME280;56291;53.960;27.550;2023-03-13T03:58:24;98635.31;;;-7.98;73.27
69184;BME280;56291;53.960;27.550;2023-03-13T04:00:50;98642.94;;;-7.97;73.00
69184;BME280;56291;53.960;27.550;2023-03-13T04:03:17;98640.41;;;-7.98;73.03
69184;BME280;56291;53.960;27.550;2023-03-13T04:05:43;98648.94;;;-7.98;73.10
69184;BME280;56291;53.960;27.550;2023-03-13T04:08:10;98654.00;;;-7.96;72.60
69184;BME280;56291;53.960;27.550;2023-03-13T04:10:36;98654.09;;;-7.99;72.46
69184;BME280;56291;53.960;27.550;2023-03-13T04:13:02;98654.88;;;-7.97;72.07
69184;BME280;56291;53.960;27.550;2023-03-13T04:15:31;98658.28;;;-7.98;72.32
69184;BME280;56291;53.960;27.550;2023-03-13T04:17:57;98664.41;;;-8.05;73.20
69184;BME280;56291;53.960;27.550;2023-03-13T04:20:25;98666.06;;;-8.03;72.24
69184;BME280;56291;53.960;27.550;2023-03-13T04:22:51;98667.84;;;-8.05;72.52
69184;BME280;56291;53.960;27.550;2023-03-13T04:25:17;98672.16;;;-8.09;72.40
69184;BME280;56291;53.960;27.550;2023-03-13T04:27:44;98674.75;;;-8.10;72.27
69184;BME280;56291;53.960;27.550;2023-03-13T04:30:10;98682.31;;;-8.07;72.05
69184;BME280;56291;53.960;27.550;2023-03-13T04:32:50;98686.69;;;-8.12;72.55
69184;BME280;56291;53.960;27.550;2023-03-13T04:35:16;98690.09;;;-8.12;71.99
69184;BME280;56291;53.960;27.550;2023-03-13T04:37:43;98685.78;;;-8.10;72.02
69184;BME280;56291;53.960;27.550;2023-03-13T04:40:45;98684.97;;;-8.10;71.89
69184;BME280;56291;53.960;27.550;2023-03-13T04:43:12;98686.75;;;-8.15;72.08
69184;BME280;56291;53.960;27.550;2023-03-13T04:45:38;98692.78;;;-8.18;71.67
69184;BME280;56291;53.960;27.550;2023-03-13T04:48:04;98705.47;;;-8.15;71.77
69184;BME280;56291;53.960;27.550;2023-03-13T04:50:31;98706.44;;;-8.19;71.90
69184;BME280;56291;53.960;27.550;2023-03-13T04:52:57;98709.03;;;-8.22;71.71
69184;BME280;56291;53.960;27.550;2023-03-13T04:55:24;98704.78;;;-8.21;72.05
69184;BME280;56291;53.960;27.550;2023-03-13T04:57:50;98709.88;;;-8.21;72.04
69184;BME280;56291;53.960;27.550;2023-03-13T05:00:16;98708.19;;;-8.22;71.85
69184;BME280;56291;53.960;27.550;2023-03-13T05:02:43;98704.84;;;-8.24;71.84
69184;BME280;56291;53.960;27.550;2023-03-13T05:05:11;98706.53;;;-8.25;71.94
69184;BME280;56291;53.960;27.550;2023-03-13T05:07:37;98711.56;;;-8.22;71.56
69184;BME280;56291;53.960;27.550;2023-03-13T05:10:04;98705.69;;;-8.24;71.58
69184;BME280;56291;53.960;27.550;2023-03-13T05:12:30;98707.41;;;-8.24;71.70
69184;BME280;56291;53.960;27.550;2023-03-13T05:14:56;98715.97;;;-8.27;71.73
69184;BME280;56291;53.960;27.550;2023-03-13T05:17:23;98711.59;;;-8.23;71.55
69184;BME280;56291;53.960;27.550;2023-03-13T05:19:49;98721.78;;;-8.22;71.48
69184;BME280;56291;53.960;27.550;2023-03-13T05:22:15;98723.53;;;-8.24;71.90
69184;BME280;56291;53.960;27.550;2023-03-13T05:24:41;98718.53;;;-8.29;71.52
69184;BME280;56291;53.960;27.550;2023-03-13T05:27:08;98730.50;;;-8.32;71.92
69184;BME280;56291;53.960;27.550;2023-03-13T05:29:34;98736.59;;;-8.38;72.65
69184;BME280;56291;53.960;27.550;2023-03-13T05:32:00;98736.53;;;-8.35;72.30
69184;BME280;56291;53.960;27.550;2023-03-13T05:34:26;98746.69;;;-8.33;73.07
69184;BME280;56291;53.960;27.550;2023-03-13T05:36:53;98739.00;;;-8.32;72.81
69184;BME280;56291;53.960;27.550;2023-03-13T05:39:19;98742.38;;;-8.30;72.04
69184;BME280;56291;53.960;27.550;2023-03-13T05:41:45;98747.47;;;-8.30;72.36
69184;BME280;56291;53.960;27.550;2023-03-13T05:44:11;98741.44;;;-8.26;72.57
69184;BME280;56291;53.960;27.550;2023-03-13T05:46:38;98745.72;;;-8.28;72.24
69184;BME280;56291;53.960;27.550;2023-03-13T05:49:04;98750.84;;;-8.29;72.40
69184;BME280;56291;53.960;27.550;2023-03-13T05:51:30;98752.47;;;-8.25;72.15
69184;BME280;56291;53.960;27.550;2023-03-13T05:53:56;98758.47;;;-8.26;72.10
69184;BME280;56291;53.960;27.550;2023-03-13T05:56:23;98757.66;;;-8.28;72.55
69184;BME280;56291;53.960;27.550;2023-03-13T05:58:49;98761.91;;;-8.29;73.13
69184;BME280;56291;53.960;27.550;2023-03-13T06:01:16;98770.31;;;-8.23;72.63
69184;BME280;56291;53.960;27.550;2023-03-13T06:03:42;98772.81;;;-8.22;72.73
69184;BME280;56291;53.960;27.550;2023-03-13T06:06:09;98780.34;;;-8.16;72.73
69184;BME280;56291;53.960;27.550;2023-03-13T06:08:35;98781.88;;;-8.07;72.89
69184;BME280;56291;53.960;27.550;2023-03-13T06:11:02;98783.56;;;-8.06;72.79
69184;BME280;56291;53.960;27.550;2023-03-13T06:13:29;98789.13;;;-7.88;73.33
69184;BME280;56291;53.960;27.550;2023-03-13T06:15:58;98788.28;;;-7.89;72.60
69184;BME280;56291;53.960;27.550;2023-03-13T06:18:25;98784.84;;;-7.86;72.67
69184;BME280;56291;53.960;27.550;2023-03-13T06:20:57;98786.38;;;-7.79;72.50
69184;BME280;56291;53.960;27.550;2023-03-13T06:23:23;98787.91;;;-7.72;73.02
69184;BME280;56291;53.960;27.550;2023-03-13T06:25:50;98784.22;;;-7.59;72.87
69184;BME280;56291;53.960;27.550;2023-03-13T06:28:16;98786.56;;;-7.51;73.35
69184;BME280;56291;53.960;27.550;2023-03-13T06:30:43;98780.50;;;-7.47;72.74
69184;BME280;56291;53.960;27.550;2023-03-13T06:33:09;98777.59;;;-7.31;73.60
69184;BME280;56291;53.960;27.550;2023-03-13T06:35:38;98777.84;;;-7.08;73.85
69184;BME280;56291;53.960;27.550;2023-03-13T06:38:04;98785.34;;;-7.01;73.43
69184;BME280;56291;53.960;27.550;2023-03-13T06:40:31;98782.38;;;-6.84;73.14
69184;BME280;56291;53.960;27.550;2023-03-13T06:42:57;98790.94;;;-6.85;73.78
69184;BME280;56291;53.960;27.550;2023-03-13T06:45:23;98792.31;;;-6.74;73.43
69184;BME280;56291;53.960;27.550;2023-03-13T06:47:50;98787.69;;;-6.61;73.17
69184;BME280;56291;53.960;27.550;2023-03-13T06:50:17;98786.41;;;-6.44;72.86
69184;BME280;56291;53.960;27.550;2023-03-13T06:52:44;98779.22;;;-6.31;73.67
69184;BME280;56291;53.960;27.550;2023-03-13T06:55:11;98782.75;;;-6.35;72.30
69184;BME280;56291;53.960;27.550;2023-03-13T06:57:37;98774.59;;;-6.18;72.81
69184;BME280;56291;53.960;27.550;2023-03-13T07:00:11;98775.59;;;-6.24;73.54
69184;BME280;56291;53.960;27.550;2023-03-13T07:02:38;98779.88;;;-5.96;72.91
69184;BME280;56291;53.960;27.550;2023-03-13T07:05:07;98775.28;;;-5.85;72.72
69184;BME280;56291;53.960;27.550;2023-03-13T07:07:33;98781.31;;;-5.86;72.12
69184;BME280;56291;53.960;27.550;2023-03-13T07:10:00;98775.50;;;-5.64;73.09
69184;BME280;56291;53.960;27.550;2023-03-13T07:12:29;98767.41;;;-5.79;72.15
69184;BME280;56291;53.960;27.550;2023-03-13T07:14:55;98764.66;;;-5.73;72.47
69184;BME280;56291;53.960;27.550;2023-03-13T07:17:31;98766.94;;;-5.63;71.83
69184;BME280;56291;53.960;27.550;2023-03-13T07:19:57;98759.84;;;-5.55;72.92
69184;BME280;56291;53.960;27.550;2023-03-13T07:22:26;98776.31;;;-5.64;72.34
69184;BME280;56291;53.960;27.550;2023-03-13T07:25:04;98746.88;;;-5.51;72.64
69184;BME280;56291;53.960;27.550;2023-03-13T07:27:33;98758.72;;;-5.46;73.16
69184;BME280;56291;53.960;27.550;2023-03-13T07:30:12;98759.44;;;-5.43;72.79
69184;BME280;56291;53.960;27.550;2023-03-13T07:32:39;98759.34;;;-5.40;72.81
69184;BME280;56291;53.960;27.550;2023-03-13T07:35:05;98758.06;;;-5.26;72.42
69184;BME280;56291;53.960;27.550;2023-03-13T07:37:39;98749.06;;;-5.13;72.73
69184;BME280;56291;53.960;27.550;2023-03-13T07:40:05;98754.78;;;-5.05;71.49
69184;BME280;56291;53.960;27.550;2023-03-13T07:42:34;98754.34;;;-5.18;72.10
69184;BME280;56291;53.960;27.550;2023-03-13T07:45:13;98750.84;;;-4.90;72.24
69184;BME280;56291;53.960;27.550;2023-03-13T07:47:39;98743.00;;;-4.85;71.67
69184;BME280;56291;53.960;27.550;2023-03-13T07:50:14;98737.81;;;-4.84;72.50
69184;BME280;56291;53.960;27.550;2023-03-13T07:53:09;98739.09;;;-4.72;70.42
69184;BME280;56291;53.960;27.550;2023-03-13T07:56:08;98710.03;;;-4.72;71.34
69184;BME280;56291;53.960;27.550;2023-03-13T07:58:54;98740.13;;;-4.52;71.78
69184;BME280;56291;53.960;27.550;2023-03-13T08:01:42;98720.31;;;-4.26;71.93
69184;BME280;56291;53.960;27.550;2023-03-13T08:04:32;98714.97;;;-4.20;71.83
69184;BME280;56291;53.960;27.550;2023-03-13T08:07:19;98717.31;;;-4.14;71.94
69184;BME280;56291;53.960;27.550;2023-03-13T08:10:09;98710.13;;;-4.06;71.51
69184;BME280;56291;53.960;27.550;2023-03-13T08:12:41;98713.25;;;-3.98;71.82
69184;BME280;56291;53.960;27.550;2023-03-13T08:15:17;98702.91;;;-3.74;70.33
69184;BME280;56291;53.960;27.550;2023-03-13T08:17:51;98713.94;;;-3.72;69.65
69184;BME280;56291;53.960;27.550;2023-03-13T08:20:18;98708.44;;;-3.63;71.80
69184;BME280;56291;53.960;27.550;2023-03-13T08:22:47;98699.28;;;-3.48;70.99
69184;BME280;56291;53.960;27.550;2023-03-13T08:25:21;98693.13;;;-3.43;70.20
69184;BME280;56291;53.960;27.550;2023-03-13T08:27:58;98694.19;;;-3.29;71.65
69184;BME280;56291;53.960;27.550;2023-03-13T08:30:29;98694.47;;;-3.14;71.77
69184;BME280;56291;53.960;27.550;2023-03-13T08:33:00;98690.06;;;-2.91;70.23
69184;BME280;56291;53.960;27.550;2023-03-13T08:35:40;98688.69;;;-2.80;71.30
69184;BME280;56291;53.960;27.550;2023-03-13T08:38:38;98696.88;;;-2.51;69.17
69184;BME280;56291;53.960;27.550;2023-03-13T08:41:17;98688.09;;;-2.66;69.25
69184;BME280;56291;53.960;27.550;2023-03-13T08:43:57;98679.03;;;-2.55;71.38
69184;BME280;56291;53.960;27.550;2023-03-13T08:46:44;98680.78;;;-2.37;69.91
69184;BME280;56291;53.960;27.550;2023-03-13T08:49:24;98686.06;;;-2.02;70.48
69184;BME280;56291;53.960;27.550;2023-03-13T08:52:18;98672.13;;;-2.17;68.82
69184;BME280;56291;53.960;27.550;2023-03-13T08:54:47;98678.59;;;-2.08;69.89
69184;BME280;56291;53.960;27.550;2023-03-13T08:57:14;98682.19;;;-1.93;72.88
69184;BME280;56291;53.960;27.550;2023-03-13T08:59:40;98664.53;;;-1.66;71.26
69184;BME280;56291;53.960;27.550;2023-03-13T09:02:17;98661.53;;;-1.57;70.91
69184;BME280;56291;53.960;27.550;2023-03-13T09:04:46;98657.66;;;-1.48;70.12
69184;BME280;56291;53.960;27.550;2023-03-13T09:07:22;98647.94;;;-1.43;72.44
69184;BME280;56291;53.960;27.550;2023-03-13T09:09:49;98666.28;;;-1.31;72.17
69184;BME280;56291;53.960;27.550;2023-03-13T09:12:15;98656.47;;;-1.07;70.81
69184;BME280;56291;53.960;27.550;2023-03-13T09:14:44;98647.22;;;-1.11;70.44
69184;BME280;56291;53.960;27.550;2023-03-13T09:17:22;98633.41;;;-0.94;72.29
69184;BME280;56291;53.960;27.550;2023-03-13T09:19:54;98639.38;;;-0.76;72.88
69184;BME280;56291;53.960;27.550;2023-03-13T09:22:38;98639.97;;;-0.55;73.73
69184;BME280;56291;53.960;27.550;2023-03-13T09:25:17;98627.63;;;-0.34;73.58
69184;BME280;56291;53.960;27.550;2023-03-13T09:28:01;98619.56;;;-0.28;69.17
69184;BME280;56291;53.960;27.550;2023-03-13T09:33:25;98605.16;;;-0.02;69.17
69184;BME280;56291;53.960;27.550;2023-03-13T09:36:02;98607.28;;;0.22;72.00
69184;BME280;56291;53.960;27.550;2023-03-13T09:38:36;98599.09;;;0.44;70.80
69184;BME280;56291;53.960;27.550;2023-03-13T09:41:24;98604.97;;;0.62;72.40
69184;BME280;56291;53.960;27.550;2023-03-13T09:49:29;98607.47;;;0.93;70.49
69184;BME280;56291;53.960;27.550;2023-03-13T09:52:24;98570.66;;;0.88;71.00
69184;BME280;56291;53.960;27.550;2023-03-13T09:55:09;98597.19;;;1.20;72.83
69184;BME280;56291;53.960;27.550;2023-03-13T10:00:36;98591.75;;;1.79;72.55
69184;BME280;56291;53.960;27.550;2023-03-13T10:06:32;98571.34;;;2.15;70.63
69184;BME280;56291;53.960;27.550;2023-03-13T10:09:40;98579.34;;;2.37;70.45
69184;BME280;56291;53.960;27.550;2023-03-13T10:12:50;98559.22;;;2.67;69.95
69184;BME280;56291;53.960;27.550;2023-03-13T10:16:17;98553.81;;;2.70;69.32
69184;BME280;56291;53.960;27.550;2023-03-13T10:19:19;98540.38;;;2.89;71.45
69184;BME280;56291;53.960;27.550;2023-03-13T10:21:52;98536.69;;;3.17;66.12
69184;BME280;56291;53.960;27.550;2023-03-13T10:30:54;98530.63;;;3.54;67.19
69184;BME280;56291;53.960;27.550;2023-03-13T10:33:46;98522.09;;;3.52;70.21
69184;BME280;56291;53.960;27.550;2023-03-13T10:36:47;98524.56;;;3.66;72.71
69184;BME280;56291;53.960;27.550;2023-03-13T10:43:19;98520.31;;;4.12;68.38
69184;BME280;56291;53.960;27.550;2023-03-13T11:06:33;98500.56;;;5.11;73.30
69184;BME280;56291;53.960;27.550;2023-03-13T11:32:50;98490.97;;;5.12;63.65
69184;BME280;56291;53.960;27.550;2023-03-13T12:08:57;98424.72;;;5.14;65.15
69184;BME280;56291;53.960;27.550;2023-03-13T12:11:51;98423.63;;;5.17;63.93
69184;BME280;56291;53.960;27.550;2023-03-13T12:14:57;98426.28;;;5.06;63.06
69184;BME280;56291;53.960;27.550;2023-03-13T12:25:48;98410.28;;;4.99;62.45
69184;BME280;56291;53.960;27.550;2023-03-13T12:32:18;98405.44;;;5.06;66.29
69184;BME280;56291;53.960;27.550;2023-03-13T12:41:47;98387.03;;;4.75;65.75
69184;BME280;56291;53.960;27.550;2023-03-13T13:28:35;98322.47;;;4.12;64.58
69184;BME280;56291;53.960;27.550;2023-03-13T13:38:21;98325.22;;;3.88;64.14
69184;BME280;56291;53.960;27.550;2023-03-13T13:48:44;98302.03;;;3.73;64.44
69184;BME280;56291;53.960;27.550;2023-03-13T14:11:36;98279.97;;;3.21;62.53
69184;BME280;56291;53.960;27.550;2023-03-13T14:38:19;98255.69;;;2.86;65.28
69184;BME280;56291;53.960;27.550;2023-03-13T14:48:37;98245.09;;;2.65;65.63
69184;BME280;56291;53.960;27.550;2023-03-13T14:55:24;98236.38;;;2.42;66.74
69184;BME280;56291;53.960;27.550;2023-03-13T15:05:34;98190.75;;;2.27;66.95
69184;BME280;56291;53.960;27.550;2023-03-13T15:19:10;98209.97;;;2.24;67.91
69184;BME280;56291;53.960;27.550;2023-03-13T15:22:20;98203.75;;;2.27;67.74
69184;BME280;56291;53.960;27.550;2023-03-13T15:28:53;98194.00;;;2.17;69.31
69184;BME280;56291;53.960;27.550;2023-03-13T15:38:55;98184.56;;;1.92;68.14
69184;BME280;56291;53.960;27.550;2023-03-13T15:51:16;98164.44;;;1.71;68.48
69184;BME280;56291;53.960;27.550;2023-03-13T15:54:30;98153.59;;;1.78;69.71
69184;BME280;56291;53.960;27.550;2023-03-13T15:57:40;98149.47;;;1.75;69.25
69184;BME280;56291;53.960;27.550;2023-03-13T16:04:35;98167.59;;;1.51;70.47
69184;BME280;56291;53.960;27.550;2023-03-13T16:13:35;98151.91;;;1.52;70.90
69184;BME280;56291;53.960;27.550;2023-03-13T16:16:25;98146.78;;;1.40;71.10
69184;BME280;56291;53.960;27.550;2023-03-13T16:19:07;98152.16;;;1.36;70.97
69184;BME280;56291;53.960;27.550;2023-03-13T16:25:34;98145.84;;;1.41;71.15
69184;BME280;56291;53.960;27.550;2023-03-13T16:49:15;98128.50;;;1.04;72.74
69184;BME280;56291;53.960;27.550;2023-03-13T16:55:28;98123.31;;;1.04;73.20
69184;BME280;56291;53.960;27.550;2023-03-13T17:18:47;98100.44;;;0.72;73.81
69184;BME280;56291;53.960;27.550;2023-03-13T17:24:55;98100.97;;;0.77;74.18
69184;BME280;56291;53.960;27.550;2023-03-13T17:30:50;98084.38;;;0.67;74.42
69184;BME280;56291;53.960;27.550;2023-03-13T17:44:22;98064.72;;;0.51;73.84
69184;BME280;56291;53.960;27.550;2023-03-13T17:53:49;98048.03;;;0.56;74.43
69184;BME280;56291;53.960;27.550;2023-03-13T17:59:58;98041.41;;;0.51;74.62
69184;BME280;56291;53.960;27.550;2023-03-13T18:02:52;98046.81;;;0.48;73.73
69184;BME280;56291;53.960;27.550;2023-03-13T18:12:25;98024.13;;;0.39;76.62
69184;BME280;56291;53.960;27.550;2023-03-13T18:15:41;98015.44;;;0.40;73.98
69184;BME280;56291;53.960;27.550;2023-03-13T18:25:29;98005.09;;;0.40;75.25
69184;BME280;56291;53.960;27.550;2023-03-13T18:28:26;98012.44;;;0.33;74.83
69184;BME280;56291;53.960;27.550;2023-03-13T18:31:34;98010.81;;;0.32;74.70
69184;BME280;56291;53.960;27.550;2023-03-13T18:38:07;97990.13;;;0.32;75.75
69184;BME280;56291;53.960;27.550;2023-03-13T18:43:58;97983.16;;;0.33;74.71
69184;BME280;56291;53.960;27.550;2023-03-13T18:47:13;97984.19;;;0.30;76.02
69184;BME280;56291;53.960;27.550;2023-03-13T19:07:24;97955.16;;;0.27;75.92
69184;BME280;56291;53.960;27.550;2023-03-13T19:34:07;97925.63;;;0.29;76.17
69184;BME280;56291;53.960;27.550;2023-03-13T19:46:32;97896.25;;;0.30;77.06
69184;BME280;56291;53.960;27.550;2023-03-13T19:52:40;97887.56;;;0.31;77.71
69184;BME280;56291;53.960;27.550;2023-03-13T20:05:12;97865.00;;;0.33;76.93
69184;BME280;56291;53.960;27.550;2023-03-13T20:08:18;97861.47;;;0.34;76.99
69184;BME280;56291;53.960;27.550;2023-03-13T20:42:23;97797.19;;;0.41;77.02
69184;BME280;56291;53.960;27.550;2023-03-13T21:02:37;97722.50;;;0.37;78.32
69184;BME280;56291;53.960;27.550;2023-03-13T21:26:21;97741.47;;;0.84;77.97
69184;BME280;56291;53.960;27.550;2023-03-13T21:46:47;97721.41;;;0.99;78.32
69184;BME280;56291;53.960;27.550;2023-03-13T22:48:03;97706.72;;;1.33;79.27
69184;BME280;56291;53.960;27.550;2023-03-13T22:51:25;97705.75;;;1.34;77.72
69184;BME280;56291;53.960;27.550;2023-03-13T22:54:48;97702.25;;;1.35;78.66
69184;BME280;56291;53.960;27.550;2023-03-13T23:12:03;97697.16;;;1.45;79.12
69184;BME280;56291;53.960;27.550;2023-03-13T23:49:24;97720.03;;;1.63;79.34
